Time;durP1;ratioP1;P1;durP2;ratioP2;P2;SDS_P1;SDS_P2;PMS_P1;PMS_P2;Temp;Humidity;BMP_temperature;BMP_pressure;BME280_temperature;BME280_humidity;BME280_pressure;Samples;Min_cycle;Max_cycle;Signal;HPM_P1;HPM_P2
2021/12/17 04:03:05;;;;;;;166.30;50.47;;;8.50;96.10;;;;;;5070787;28;20915;-49
2021/12/17 04:05:31;;;;;;;189.60;54.72;;;8.60;96.20;;;;;;5069060;28;20025;-49
2021/12/17 04:07:56;;;;;;;166.75;50.65;;;8.80;96.30;;;;;;5068934;28;20025;-49
2021/12/17 04:10:24;;;;;;;178.07;52.60;;;8.90;96.20;;;;;;5070147;28;20044;-48
2021/12/17 04:15:36;;;;;;;160.50;48.45;;;9.00;95.90;;;;;;5070437;28;20032;-49
2021/12/17 04:18:07;;;;;;;166.55;53.17;;;9.20;95.50;;;;;;5069997;28;20453;-49
2021/12/17 04:20:34;;;;;;;169.52;49.38;;;9.20;95.00;;;;;;5070226;28;20028;-50
2021/12/17 04:22:59;;;;;;;153.32;50.42;;;9.20;94.50;;;;;;5069766;28;20086;-49
2021/12/17 04:25:25;;;;;;;155.43;49.53;;;9.30;94.30;;;;;;5070032;28;20017;-52
2021/12/17 04:27:51;;;;;;;151.50;49.47;;;9.20;94.20;;;;;;5069811;28;20025;-52
2021/12/17 04:30:17;;;;;;;145.25;45.70;;;9.10;94.10;;;;;;5069975;28;20029;-53
2021/12/17 04:32:43;;;;;;;138.18;46.33;;;9.10;94.30;;;;;;5069975;28;20481;-48
2021/12/17 04:35:09;;;;;;;139.55;46.75;;;9.10;94.50;;;;;;5069888;28;20051;-49
2021/12/17 04:37:35;;;;;;;141.07;42.00;;;9.00;94.60;;;;;;5069599;28;20025;-49
2021/12/17 04:40:01;;;;;;;142.25;43.55;;;8.90;94.40;;;;;;5069503;28;20401;-50
2021/12/17 04:44:59;;;;;;;111.65;38.97;;;9.00;94.60;;;;;;5070049;28;20025;-48
2021/12/17 04:58:23;;;;;;;100.20;36.08;;;9.20;93.60;;;;;;5069443;28;20074;-49
2021/12/17 05:00:49;;;;;;;104.95;37.10;;;9.20;93.80;;;;;;5068895;28;20478;-51
2021/12/17 05:03:15;;;;;;;108.57;38.45;;;9.10;93.70;;;;;;5069415;28;20028;-52
2021/12/17 05:05:40;;;;;;;108.97;39.25;;;9.30;94.00;;;;;;5069486;28;20025;-48
2021/12/17 05:08:12;;;;;;;111.80;38.55;;;9.30;93.90;;;;;;5068917;28;20106;-50
2021/12/17 05:18:37;;;;;;;96.22;34.65;;;9.20;93.70;;;;;;5055790;28;20334;-50
2021/12/17 05:21:07;;;;;;;105.53;38.35;;;9.10;93.80;;;;;;5055403;28;20031;-49
2021/12/17 05:23:39;;;;;;;126.25;40.65;;;9.00;94.10;;;;;;5055571;28;20033;-52
2021/12/17 05:26:07;;;;;;;108.88;35.00;;;9.00;94.50;;;;;;5055728;28;20087;-52
2021/12/17 05:28:33;;;;;;;121.28;39.88;;;9.00;94.50;;;;;;5055242;28;20021;-51
2021/12/17 05:30:59;;;;;;;138.77;45.80;;;8.90;94.70;;;;;;5055400;28;20427;-48
2021/12/17 05:33:26;;;;;;;139.95;42.67;;;8.90;94.80;;;;;;5055287;28;20100;-48
2021/12/17 05:35:52;;;;;;;135.95;39.75;;;8.90;94.90;;;;;;5055357;28;20037;-49
2021/12/17 05:38:20;;;;;;;134.27;39.20;;;8.90;95.00;;;;;;5055547;28;20104;-52
2021/12/17 05:40:46;;;;;;;147.93;45.78;;;8.90;95.10;;;;;;5055308;28;20033;-51
2021/12/17 05:43:14;;;;;;;140.80;41.92;;;8.90;95.10;;;;;;5055017;28;20599;-49
2021/12/17 05:48:13;;;;;;;138.95;41.97;;;8.90;95.10;;;;;;5055048;28;20464;-52
2021/12/17 05:50:42;;;;;;;131.80;43.10;;;8.90;95.10;;;;;;5054922;28;20026;-51
2021/12/17 05:53:08;;;;;;;143.65;41.97;;;8.90;95.20;;;;;;5053469;28;20098;-54
2021/12/17 05:55:35;;;;;;;134.02;41.65;;;8.80;95.30;;;;;;5055525;28;20025;-51
2021/12/17 05:58:02;;;;;;;129.63;39.75;;;8.80;95.30;;;;;;5054743;28;20121;-53
2021/12/17 06:00:31;;;;;;;153.10;43.65;;;8.80;95.40;;;;;;5054771;28;20021;-52
2021/12/17 06:02:58;;;;;;;134.82;38.95;;;8.90;95.40;;;;;;5054427;28;20093;-52
2021/12/17 06:05:24;;;;;;;119.55;38.78;;;8.90;95.30;;;;;;5055050;28;20366;-53
2021/12/17 06:07:50;;;;;;;129.45;39.58;;;8.90;95.20;;;;;;5054558;28;20024;-53
2021/12/17 06:10:16;;;;;;;108.13;34.40;;;8.90;95.20;;;;;;5055019;28;20084;-48
2021/12/17 06:12:42;;;;;;;101.47;34.13;;;8.80;95.10;;;;;;5054530;28;20020;-49
2021/12/17 06:15:11;;;;;;;116.88;33.58;;;8.80;95.20;;;;;;5054676;28;20029;-52
2021/12/17 06:17:37;;;;;;;103.97;32.85;;;8.80;95.20;;;;;;5054740;28;20029;-49
2021/12/17 06:20:06;;;;;;;117.95;36.42;;;8.80;95.20;;;;;;5053482;28;20025;-49
2021/12/17 06:22:33;;;;;;;103.95;34.10;;;8.90;95.30;;;;;;5053298;28;20507;-52
2021/12/17 06:24:59;;;;;;;108.05;34.35;;;8.90;95.20;;;;;;5051862;28;20500;-52
2021/12/17 06:27:26;;;;;;;105.93;30.92;;;9.00;95.10;;;;;;5054291;28;20017;-50
2021/12/17 06:29:52;;;;;;;100.45;30.95;;;9.00;95.00;;;;;;5052815;28;20091;-48
2021/12/17 06:32:19;;;;;;;86.97;29.08;;;8.90;94.90;;;;;;5054241;28;20468;-50
2021/12/17 06:34:46;;;;;;;91.68;27.92;;;8.90;94.90;;;;;;5054396;28;20028;-51
2021/12/17 06:37:12;;;;;;;99.97;31.08;;;8.90;95.00;;;;;;5054355;28;20033;-49
2021/12/17 06:39:38;;;;;;;104.18;29.42;;;8.90;94.90;;;;;;5054131;28;20025;-50
2021/12/17 06:42:04;;;;;;;88.72;28.45;;;8.90;94.90;;;;;;5052402;28;20116;-51
2021/12/17 06:44:31;;;;;;;71.43;23.20;;;8.90;95.00;;;;;;5054271;28;20118;-53
2021/12/17 07:00:13;;;;;;;78.93;25.20;;;9.00;94.90;;;;;;5053747;28;20496;-52
2021/12/17 07:10:53;;;;;;;79.78;23.90;;;8.90;94.80;;;;;;5053279;28;20120;-48
2021/12/17 07:32:20;;;;;;;77.40;25.77;;;8.90;95.00;;;;;;5052849;28;20051;-50
2021/12/17 07:39:38;;;;;;;87.28;26.98;;;8.70;95.10;;;;;;5052318;28;20489;-49
2021/12/17 07:42:04;;;;;;;79.18;26.00;;;8.80;95.30;;;;;;5050898;28;20025;-52
2021/12/17 07:44:29;;;;;;;88.10;26.50;;;8.80;95.30;;;;;;5052341;28;20168;-50
2021/12/17 07:46:55;;;;;;;85.30;28.52;;;8.80;95.20;;;;;;5052726;28;20024;-47
2021/12/17 07:49:21;;;;;;;84.80;24.98;;;8.80;95.10;;;;;;5052426;28;20021;-52
2021/12/17 07:51:47;;;;;;;86.95;27.55;;;8.80;95.00;;;;;;5053037;28;20481;-48
2021/12/17 07:54:13;;;;;;;82.32;24.67;;;8.80;94.90;;;;;;5052916;28;20025;-49
2021/12/17 07:56:38;;;;;;;75.32;25.85;;;8.80;94.90;;;;;;5052523;28;20029;-48
2021/12/17 07:59:09;;;;;;;80.43;28.23;;;8.80;94.90;;;;;;5052738;28;20029;-50
2021/12/17 14:03:11;;;;;;;9.68;5.45;;;9.00;83.10;;;;;;5090665;28;20454;-40
2021/12/17 14:05:41;;;;;;;11.07;5.10;;;9.10;83.10;;;;;;5090321;28;20048;-40
2021/12/17 14:08:15;;;;;;;9.52;5.57;;;9.20;82.80;;;;;;5090081;28;20052;-39
2021/12/17 14:10:41;;;;;;;10.93;5.88;;;9.40;82.00;;;;;;5090628;28;20024;-39
2021/12/17 14:13:17;;;;;;;10.77;5.63;;;9.30;82.30;;;;;;5090394;28;20024;-38
2021/12/17 14:15:43;;;;;;;11.02;5.68;;;9.40;81.90;;;;;;5090293;28;20055;-40
2021/12/17 14:18:10;;;;;;;13.85;6.18;;;9.40;82.10;;;;;;5090242;28;20031;-40
2021/12/17 14:20:42;;;;;;;6.22;5.00;;;9.40;81.10;;;;;;5090440;28;20111;-39
2021/12/17 14:23:10;;;;;;;7.38;4.88;;;9.40;81.20;;;;;;5090192;28;20073;-39
2021/12/17 14:25:44;;;;;;;7.18;4.78;;;9.30;80.70;;;;;;5089999;28;20477;-40
2021/12/17 14:28:20;;;;;;;6.93;5.60;;;9.30;80.50;;;;;;5089895;28;20162;-38
2021/12/17 14:30:56;;;;;;;5.53;4.50;;;9.30;80.90;;;;;;5088443;28;20024;-39
2021/12/17 14:33:25;;;;;;;6.95;5.35;;;9.30;80.80;;;;;;5089705;28;20055;-38
2021/12/17 14:36:04;;;;;;;7.05;5.05;;;9.30;80.40;;;;;;5089837;28;20325;-41
2021/12/17 14:38:38;;;;;;;15.40;5.15;;;9.10;80.20;;;;;;5089667;28;20020;-39
2021/12/17 14:41:05;;;;;;;5.95;4.75;;;9.00;80.10;;;;;;5089521;28;20028;-39
2021/12/17 14:43:48;;;;;;;9.43;6.03;;;9.10;80.30;;;;;;5089746;28;20039;-38
2021/12/17 14:46:24;;;;;;;6.68;4.72;;;9.00;80.30;;;;;;5090921;28;20024;-40
2021/12/17 14:58:04;;;;;;;8.27;5.93;;;9.10;80.30;;;;;;5092996;28;20063;-40
2021/12/17 15:03:01;;;;;;;7.50;5.50;;;9.20;80.50;;;;;;5094430;28;20057;-41
2021/12/17 15:05:30;;;;;;;10.93;6.50;;;9.10;80.40;;;;;;5094930;28;20028;-39
2021/12/17 15:07:58;;;;;;;7.53;5.55;;;9.20;80.50;;;;;;5093792;28;20581;-40
2021/12/17 15:10:26;;;;;;;11.85;6.53;;;9.20;80.70;;;;;;5092720;28;20024;-40
2021/12/17 15:12:57;;;;;;;10.45;6.38;;;9.10;80.70;;;;;;5089294;28;20037;-40
2021/12/17 15:15:30;;;;;;;17.40;7.80;;;9.10;80.80;;;;;;5078370;28;20062;-39
2021/12/17 15:17:57;;;;;;;8.05;6.18;;;9.10;81.30;;;;;;5079739;28;20137;-39
2021/12/17 15:20:29;;;;;;;9.60;6.32;;;9.10;80.90;;;;;;5079252;28;20108;-39
2021/12/17 15:22:59;;;;;;;14.43;7.15;;;9.10;80.30;;;;;;5078063;28;20029;-39
2021/12/17 15:25:26;;;;;;;10.25;6.82;;;9.00;80.70;;;;;;5080512;28;20032;-41
2021/12/17 15:27:53;;;;;;;7.55;6.40;;;9.10;80.50;;;;;;5080176;28;20029;-40
2021/12/17 15:30:27;;;;;;;8.13;6.50;;;9.10;80.00;;;;;;5079759;28;20420;-41
2021/12/17 15:32:54;;;;;;;9.20;7.28;;;9.10;80.40;;;;;;5075283;28;20035;-39
2021/12/17 15:35:23;;;;;;;11.70;7.40;;;9.00;80.70;;;;;;5075360;28;20556;-39
2021/12/17 15:37:50;;;;;;;12.40;7.07;;;9.00;80.80;;;;;;5075232;28;20035;-38
2021/12/17 15:40:17;;;;;;;11.60;7.90;;;9.00;80.40;;;;;;5074783;28;20017;-39
2021/12/17 15:42:43;;;;;;;12.52;7.80;;;9.00;80.50;;;;;;5074580;28;20297;-40
2021/12/17 15:45:10;;;;;;;12.27;8.27;;;9.10;80.50;;;;;;5074411;28;20090;-40
2021/12/17 15:47:37;;;;;;;16.35;8.43;;;9.00;80.70;;;;;;5074362;28;20024;-40
2021/12/17 15:50:05;;;;;;;17.00;9.25;;;8.90;81.00;;;;;;5074369;28;20028;-40
2021/12/17 15:52:43;;;;;;;12.68;8.20;;;8.90;81.60;;;;;;5073697;28;20433;-39
2021/12/17 15:55:10;;;;;;;9.40;7.38;;;8.90;81.40;;;;;;5073788;28;20024;-39
2021/12/17 15:57:35;;;;;;;11.27;7.70;;;8.90;80.70;;;;;;5074201;28;20024;-40
2021/12/17 16:00:01;;;;;;;11.70;7.80;;;8.90;80.80;;;;;;5073997;28;20174;-39
2021/12/17 16:02:27;;;;;;;12.75;8.80;;;9.00;80.90;;;;;;5074200;28;20515;-39
2021/12/17 16:04:52;;;;;;;11.18;7.63;;;9.00;80.80;;;;;;5074274;28;20033;-39
2021/12/17 16:07:18;;;;;;;13.75;8.35;;;9.10;80.60;;;;;;5073918;28;20020;-39
2021/12/17 16:10:45;;;;;;;13.18;8.13;;;9.10;80.80;;;;;;5074358;28;20025;-40
2021/12/17 16:18:37;;;;;;;11.88;8.82;;;9.10;80.90;;;;;;5074500;28;20434;-38
2021/12/17 16:21:03;;;;;;;13.18;9.02;;;9.00;80.70;;;;;;5073776;28;20032;-41
2021/12/17 16:23:35;;;;;;;14.55;8.35;;;9.00;81.00;;;;;;5074193;28;20025;-39
2021/12/17 16:26:01;;;;;;;10.80;7.75;;;9.00;81.50;;;;;;5071701;28;20028;-39
2021/12/17 16:28:28;;;;;;;11.95;8.18;;;9.10;81.30;;;;;;5073966;28;20095;-39
2021/12/17 16:31:07;;;;;;;12.45;8.82;;;9.10;81.20;;;;;;5073979;28;20468;-39
2021/12/17 16:33:34;;;;;;;11.77;8.15;;;9.10;81.30;;;;;;5074195;28;20024;-40
2021/12/17 16:36:02;;;;;;;10.73;8.02;;;9.10;81.00;;;;;;5056279;28;20052;-40
2021/12/17 16:38:28;;;;;;;12.07;8.52;;;9.00;81.40;;;;;;5074434;28;20122;-39
2021/12/17 16:40:54;;;;;;;12.57;8.32;;;9.00;80.80;;;;;;5073678;28;20107;-39
2021/12/17 16:43:20;;;;;;;11.73;8.43;;;8.80;80.40;;;;;;5073820;28;20016;-39
2021/12/17 16:46:03;;;;;;;11.65;8.45;;;8.80;80.70;;;;;;5073752;28;20130;-40
2021/12/17 16:48:29;;;;;;;13.25;8.40;;;8.80;80.20;;;;;;5074012;28;20479;-40
2021/12/17 16:50:55;;;;;;;14.88;9.50;;;8.90;80.20;;;;;;5073925;28;20021;-41
2021/12/17 16:53:20;;;;;;;15.20;8.32;;;8.90;80.90;;;;;;5073766;28;20043;-38
2021/12/17 16:55:46;;;;;;;16.85;9.30;;;8.80;80.10;;;;;;5073747;28;20032;-40
2021/12/17 16:58:12;;;;;;;11.40;8.52;;;8.80;80.40;;;;;;5073589;28;20035;-40
2021/12/17 17:00:37;;;;;;;13.80;9.77;;;8.80;80.20;;;;;;5071911;28;20017;-39
2021/12/17 17:03:04;;;;;;;15.20;9.55;;;8.90;80.20;;;;;;5073303;28;20111;-39
2021/12/17 17:05:31;;;;;;;14.23;8.98;;;8.90;80.00;;;;;;5073357;28;20055;-38
2021/12/17 17:07:58;;;;;;;15.07;9.82;;;8.90;80.50;;;;;;5073543;28;20024;-38
2021/12/17 17:10:29;;;;;;;11.93;8.77;;;9.00;80.70;;;;;;5073102;28;20020;-40
2021/12/17 17:12:59;;;;;;;;;;;9.00;81.20;;;;;;5073627;28;20481;-40
2021/12/17 17:15:24;;;;;;;12.53;9.23;;;8.90;81.50;;;;;;5071785;28;20263;-40
2021/12/17 17:17:52;;;;;;;15.48;9.60;;;8.90;82.10;;;;;;5072697;28;20312;-38
2021/12/17 17:20:18;;;;;;;17.08;9.48;;;8.90;81.90;;;;;;5072785;28;20500;-39
2021/12/17 17:22:43;;;;;;;15.02;8.82;;;8.90;81.80;;;;;;5073254;28;20059;-39
2021/12/17 17:25:09;;;;;;;14.10;9.82;;;9.10;81.20;;;;;;5073394;28;20016;-39
2021/12/17 17:27:35;;;;;;;15.35;9.88;;;9.00;81.10;;;;;;5073185;28;20021;-38
2021/12/17 17:30:01;;;;;;;19.10;11.77;;;9.00;81.30;;;;;;5071348;28;20123;-39
2021/12/17 17:32:26;;;;;;;18.27;11.35;;;9.00;81.60;;;;;;5072262;28;20107;-39
2021/12/17 17:34:54;;;;;;;17.35;10.02;;;9.00;81.60;;;;;;5073200;28;20033;-39
2021/12/17 17:37:19;;;;;;;19.67;12.00;;;9.00;81.70;;;;;;5071347;28;20028;-40
2021/12/17 17:39:45;;;;;;;16.75;10.52;;;8.80;81.70;;;;;;5072933;28;20028;-38
2021/12/17 17:42:11;;;;;;;16.75;10.90;;;8.80;82.00;;;;;;5072934;28;20507;-40
2021/12/17 17:44:36;;;;;;;20.80;10.75;;;8.90;81.90;;;;;;5076508;28;20024;-39
2021/12/17 17:47:02;;;;;;;17.23;11.32;;;8.90;82.00;;;;;;5075016;28;20106;-38
2021/12/17 17:49:30;;;;;;;15.60;9.65;;;8.90;81.90;;;;;;5072244;28;20025;-39
2021/12/17 17:51:55;;;;;;;15.15;10.10;;;8.90;82.20;;;;;;5072474;28;20025;-38
2021/12/17 17:54:21;;;;;;;19.60;11.73;;;8.80;82.20;;;;;;5072695;28;20028;-39
2021/12/17 17:56:47;;;;;;;20.30;11.73;;;8.80;82.40;;;;;;5071501;28;20029;-39
2021/12/17 17:59:12;;;;;;;18.40;11.65;;;8.80;82.70;;;;;;5072954;28;20086;-39
2021/12/17 18:01:38;;;;;;;20.35;10.70;;;8.80;82.80;;;;;;5072225;28;20037;-39
2021/12/17 18:04:04;;;;;;;17.95;10.05;;;8.70;83.30;;;;;;5072444;28;20021;-39
2021/12/17 18:06:29;;;;;;;16.70;10.10;;;8.70;83.30;;;;;;5073080;28;20423;-40
2021/12/17 18:08:55;;;;;;;17.63;10.50;;;8.70;83.60;;;;;;5071139;28;20023;-39
2021/12/17 18:11:21;;;;;;;16.80;10.80;;;8.70;83.50;;;;;;5073022;28;20024;-38
2021/12/17 18:13:46;;;;;;;17.95;10.57;;;8.70;83.70;;;;;;5072670;28;20115;-39
2021/12/17 18:16:12;;;;;;;16.38;10.13;;;8.70;83.60;;;;;;5072920;28;20473;-38
2021/12/17 18:18:38;;;;;;;19.77;11.23;;;8.70;83.60;;;;;;5072966;28;20060;-39
2021/12/17 18:21:04;;;;;;;17.50;11.02;;;8.70;83.70;;;;;;5073039;28;20528;-39
2021/12/17 18:23:29;;;;;;;15.55;9.60;;;8.70;83.60;;;;;;5071696;28;20029;-39
2021/12/17 18:25:56;;;;;;;18.80;11.60;;;8.70;83.70;;;;;;5072005;28;20066;-39
2021/12/17 18:28:23;;;;;;;17.13;11.18;;;8.80;83.90;;;;;;5073594;28;20028;-53
2021/12/17 18:30:50;;;;;;;20.13;10.52;;;8.70;83.80;;;;;;5072938;28;20020;-50
2021/12/17 18:33:16;;;;;;;21.35;13.90;;;8.60;84.50;;;;;;5073048;28;20020;-52
2021/12/17 18:35:42;;;;;;;15.93;10.63;;;8.60;84.70;;;;;;5072936;28;20140;-51
2021/12/17 18:38:09;;;;;;;17.30;10.65;;;8.60;85.00;;;;;;5072216;28;20157;-51
2021/12/17 18:40:41;;;;;;;20.20;10.82;;;8.60;85.00;;;;;;5073253;28;20017;-49
2021/12/17 18:45:51;;;;;;;19.77;11.00;;;8.70;84.80;;;;;;5073253;28;20035;-52
2021/12/17 18:48:20;;;;;;;18.05;10.80;;;8.70;84.80;;;;;;5074136;28;20494;-50
2021/12/17 18:50:46;;;;;;;20.77;10.50;;;8.70;85.10;;;;;;5076543;28;20017;-51
2021/12/17 18:53:13;;;;;;;16.80;11.27;;;8.70;84.70;;;;;;5076739;28;20039;-49
2021/12/17 18:55:39;;;;;;;19.83;12.32;;;8.80;84.90;;;;;;5076414;28;20020;-51
2021/12/17 18:58:06;;;;;;;16.00;10.98;;;8.70;85.10;;;;;;5076463;28;20028;-54
2021/12/17 19:00:33;;;;;;;15.60;10.00;;;8.60;85.30;;;;;;5075393;28;20380;-54
2021/12/17 19:03:00;;;;;;;17.25;12.15;;;8.50;85.40;;;;;;5074918;28;20037;-53
2021/12/17 19:05:26;;;;;;;18.85;11.63;;;8.60;85.60;;;;;;5076479;28;20029;-48
2021/12/17 19:07:53;;;;;;;19.13;13.00;;;8.80;85.20;;;;;;5075807;28;20416;-49
2021/12/17 19:10:19;;;;;;;21.15;11.70;;;8.80;85.00;;;;;;5076118;28;20130;-53
2021/12/17 19:12:45;;;;;;;23.50;12.02;;;8.80;85.00;;;;;;5076010;28;20032;-50
2021/12/17 19:15:11;;;;;;;14.93;10.00;;;8.80;85.40;;;;;;5075890;28;20485;-52
2021/12/17 19:17:37;;;;;;;20.15;12.05;;;8.80;85.30;;;;;;5074182;28;20558;-49
2021/12/17 19:22:36;;;;;;;16.00;10.25;;;8.70;85.40;;;;;;5075560;28;20020;-52
2021/12/17 19:25:11;;;;;;;18.63;11.88;;;8.80;85.50;;;;;;5075282;28;20025;-49
2021/12/17 19:27:39;;;;;;;23.52;13.18;;;8.80;85.20;;;;;;5075888;28;20054;-52
2021/12/17 19:30:07;;;;;;;20.60;12.32;;;8.80;85.50;;;;;;5075350;28;20021;-48
2021/12/17 19:32:33;;;;;;;19.80;11.98;;;8.70;85.70;;;;;;5075318;28;20024;-49
2021/12/17 19:34:59;;;;;;;18.38;10.63;;;8.80;85.50;;;;;;5074960;28;20079;-48
2021/12/17 19:37:25;;;;;;;18.38;10.50;;;8.80;85.60;;;;;;5074974;28;20028;-39
2021/12/17 19:39:51;;;;;;;22.27;11.00;;;8.60;85.80;;;;;;5075307;28;20048;-38
2021/12/17 19:42:18;;;;;;;17.55;11.77;;;8.60;86.40;;;;;;5074979;28;20024;-39
2021/12/17 19:44:44;;;;;;;22.08;12.43;;;8.60;86.40;;;;;;5073928;28;20024;-38
2021/12/17 19:52:06;;;;;;;20.38;12.00;;;8.70;86.10;;;;;;5075598;28;20504;-39
2021/12/17 19:54:33;;;;;;;23.60;13.05;;;8.50;86.30;;;;;;5074930;28;20024;-40
2021/12/17 19:57:00;;;;;;;20.25;12.18;;;8.60;86.30;;;;;;5074623;28;20032;-40
2021/12/17 19:59:26;;;;;;;24.15;13.75;;;8.60;86.40;;;;;;5074352;28;20073;-41
2021/12/17 20:01:54;;;;;;;23.95;12.88;;;8.60;86.60;;;;;;5074574;28;20045;-41
2021/12/17 20:04:20;;;;;;;21.77;12.25;;;8.70;86.30;;;;;;5074564;28;20021;-40
2021/12/17 20:06:47;;;;;;;20.05;12.52;;;8.60;86.50;;;;;;5075305;28;20468;-53
2021/12/17 20:09:15;;;;;;;19.35;11.27;;;8.70;86.60;;;;;;5076699;28;20028;-49
2021/12/17 20:11:43;;;;;;;22.92;12.73;;;8.70;86.80;;;;;;5076606;28;20074;-51
2021/12/17 20:14:09;;;;;;;20.73;12.13;;;8.70;86.70;;;;;;5074608;28;20143;-51
2021/12/17 20:16:35;;;;;;;20.35;11.65;;;8.80;86.60;;;;;;5074270;28;20467;-52
2021/12/17 20:19:03;;;;;;;18.85;11.43;;;8.70;86.70;;;;;;5074194;28;20062;-49
2021/12/17 20:21:28;;;;;;;26.80;12.40;;;8.60;86.90;;;;;;5074307;28;20020;-52
2021/12/17 20:23:54;;;;;;;24.98;13.10;;;8.60;87.30;;;;;;5074609;28;20016;-52
2021/12/17 20:26:21;;;;;;;22.88;12.00;;;8.50;87.50;;;;;;5074583;28;20028;-50
2021/12/17 20:28:50;;;;;;;19.58;12.15;;;8.50;87.60;;;;;;5074306;28;20036;-51
2021/12/17 20:31:17;;;;;;;24.05;13.00;;;8.60;87.50;;;;;;5072434;28;20028;-49
2021/12/17 20:33:43;;;;;;;21.95;13.95;;;8.60;87.50;;;;;;5074987;28;20016;-52
2021/12/17 20:36:09;;;;;;;19.88;12.60;;;8.60;87.50;;;;;;5074419;28;20028;-51
2021/12/17 20:38:35;;;;;;;23.38;12.23;;;8.50;87.40;;;;;;5074311;28;20154;-52
2021/12/17 20:41:05;;;;;;;23.42;12.60;;;8.60;88.00;;;;;;5074584;28;20074;-50
2021/12/17 20:43:47;;;;;;;19.13;12.48;;;8.70;87.50;;;;;;5074242;28;20032;-55
2021/12/17 20:46:15;;;;;;;23.98;13.48;;;8.70;87.40;;;;;;5074407;28;20025;-49
2021/12/17 20:48:41;;;;;;;25.00;12.50;;;8.60;87.60;;;;;;5074148;28;20476;-52
2021/12/17 20:51:07;;;;;;;22.13;11.60;;;8.50;88.10;;;;;;5074430;28;20060;-52
2021/12/17 20:53:33;;;;;;;23.35;13.75;;;8.40;88.20;;;;;;5074628;28;20338;-51
2021/12/17 20:55:59;;;;;;;22.20;13.75;;;8.40;88.60;;;;;;5074250;28;20023;-52
2021/12/17 20:58:26;;;;;;;26.27;14.68;;;8.60;88.30;;;;;;5074559;28;20020;-50
2021/12/17 21:00:52;;;;;;;24.48;12.93;;;8.60;87.60;;;;;;5073980;28;20025;-52
2021/12/17 21:03:18;;;;;;;26.80;14.85;;;8.70;87.60;;;;;;5073287;28;20423;-51
2021/12/17 21:05:47;;;;;;;26.85;15.43;;;8.60;87.60;;;;;;5074429;28;20089;-52
2021/12/17 21:08:14;;;;;;;24.92;14.25;;;8.50;88.30;;;;;;5075170;28;20029;-50
2021/12/17 21:10:41;;;;;;;20.15;13.35;;;8.40;88.50;;;;;;5055922;28;20048;-52
2021/12/17 21:13:10;;;;;;;26.50;15.30;;;8.40;88.70;;;;;;5072925;28;20029;-52
2021/12/17 21:15:38;;;;;;;32.45;14.52;;;8.40;88.90;;;;;;5074863;28;20021;-51
2021/12/17 21:18:06;;;;;;;24.92;13.98;;;8.40;89.00;;;;;;5074520;28;20032;-54
2021/12/17 21:20:38;;;;;;;27.75;15.80;;;8.70;88.60;;;;;;5074430;28;20066;-53
2021/12/17 21:23:05;;;;;;;23.98;14.00;;;8.80;87.70;;;;;;5074874;28;20038;-49
2021/12/17 21:25:32;;;;;;;30.10;15.77;;;8.50;88.20;;;;;;5074362;28;20021;-53
2021/12/17 21:27:58;;;;;;;30.80;14.88;;;8.40;88.80;;;;;;5075318;28;20021;-53
2021/12/17 21:30:24;;;;;;;24.52;15.18;;;8.80;88.40;;;;;;5074903;28;20050;-51
2021/12/17 21:32:50;;;;;;;25.23;14.82;;;8.80;87.60;;;;;;5074760;28;20032;-54
2021/12/17 21:35:21;;;;;;;45.15;17.58;;;8.60;88.10;;;;;;5074636;28;20036;-52
2021/12/17 21:37:50;;;;;;;26.00;15.13;;;8.50;88.60;;;;;;5072934;28;20056;-51
2021/12/17 21:40:17;;;;;;;28.80;15.88;;;8.50;88.90;;;;;;5072660;28;20074;-41
2021/12/17 21:42:43;;;;;;;26.10;14.75;;;8.70;87.80;;;;;;5073795;28;20056;-41
2021/12/17 21:45:09;;;;;;;27.25;15.00;;;8.70;87.90;;;;;;5074141;28;20100;-41
2021/12/17 21:47:36;;;;;;;22.77;12.77;;;8.80;87.70;;;;;;5073727;28;20481;-39
2021/12/17 21:50:03;;;;;;;25.02;14.05;;;8.70;87.60;;;;;;5072768;28;20059;-40
2021/12/17 21:52:29;;;;;;;27.38;15.20;;;8.80;87.80;;;;;;5074254;28;20036;-41
2021/12/17 21:54:55;;;;;;;26.25;15.57;;;8.60;87.70;;;;;;5074738;28;20024;-40
2021/12/17 21:57:20;;;;;;;26.75;15.60;;;8.60;88.40;;;;;;5074338;28;20029;-42
2021/12/17 21:59:46;;;;;;;29.58;15.77;;;8.80;88.00;;;;;;5074155;28;20044;-40
2021/12/17 22:02:13;;;;;;;28.27;14.98;;;8.70;87.80;;;;;;5073971;28;20052;-43
2021/12/17 22:04:39;;;;;;;25.58;16.00;;;8.50;87.80;;;;;;5072832;28;20020;-41
2021/12/17 22:07:05;;;;;;;28.23;14.68;;;8.60;87.90;;;;;;5073114;28;20024;-42
2021/12/17 22:09:35;;;;;;;33.05;16.08;;;8.70;88.00;;;;;;5074842;28;20436;-42
2021/12/17 22:12:01;;;;;;;28.23;14.88;;;8.80;87.90;;;;;;5073973;28;20025;-40
2021/12/17 22:14:27;;;;;;;27.38;15.68;;;8.70;87.70;;;;;;5074985;28;20369;-40
2021/12/17 22:16:56;;;;;;;27.63;15.73;;;8.70;87.90;;;;;;5074248;28;20028;-39
2021/12/17 22:19:23;;;;;;;34.70;15.57;;;8.60;88.40;;;;;;5073355;28;20379;-40
2021/12/17 22:21:58;;;;;;;31.35;17.00;;;8.40;88.40;;;;;;5074166;28;20040;-39
2021/12/17 22:24:25;;;;;;;27.77;15.85;;;8.40;89.10;;;;;;5077000;28;20052;-39
2021/12/17 22:26:50;;;;;;;35.45;16.65;;;8.30;89.30;;;;;;5077452;28;20028;-38
2021/12/17 22:29:16;;;;;;;30.67;16.48;;;8.30;89.50;;;;;;5077865;28;20385;-40
2021/12/17 22:31:42;;;;;;;27.30;15.50;;;8.30;89.70;;;;;;5077069;28;20024;-39
2021/12/17 22:34:08;;;;;;;27.35;16.75;;;8.20;89.90;;;;;;5077700;28;20372;-38
2021/12/17 22:36:34;;;;;;;26.02;16.23;;;8.30;89.70;;;;;;5076011;28;20020;-39
2021/12/17 22:38:59;;;;;;;32.20;17.30;;;8.30;90.00;;;;;;5076116;28;20031;-38
2021/12/17 22:43:52;;;;;;;35.38;20.67;;;8.30;89.60;;;;;;5077042;28;20099;-39
2021/12/17 22:46:18;;;;;;;30.17;16.20;;;8.40;89.70;;;;;;5077481;28;20023;-41
2021/12/17 22:48:47;;;;;;;28.88;17.33;;;8.50;89.50;;;;;;5076443;28;20020;-40
2021/12/17 22:51:14;;;;;;;34.20;18.75;;;8.40;89.10;;;;;;5076653;28;20029;-39
2021/12/17 22:53:39;;;;;;;26.13;16.15;;;8.40;89.30;;;;;;5076956;28;20029;-40
2021/12/17 22:56:06;;;;;;;33.22;18.08;;;8.50;89.50;;;;;;5076174;28;20107;-39
2021/12/17 22:58:32;;;;;;;32.67;17.70;;;8.80;88.50;;;;;;5076224;28;20380;-37
